Time;durP1;ratioP1;P1;durP2;ratioP2;P2;SDS_P1;SDS_P2;PMS_P1;PMS_P2;Temp;Humidity;BMP_temperature;BMP_pressure;BME280_temperature;BME280_humidity;BME280_pressure;Samples;Min_cycle;Max_cycle;Signal;HPM_P1;HPM_P2
2021/06/03 00:00:45;;;;;;;10.20;4.07;;;;;;;;;;5013742;28;20083;-82
2021/06/03 00:03:31;;;;;;;10.32;5.40;;;;;;;;;;5013265;28;20051;-81
2021/06/03 00:06:16;;;;;;;6.97;4.78;;;;;;;;;;5016431;28;20048;-82
2021/06/03 00:09:03;;;;;;;8.02;4.40;;;;;;;;;;5008407;28;20030;-82
2021/06/03 00:11:48;;;;;;;6.13;3.55;;;;;;;;;;5002500;28;20487;-82
2021/06/03 00:14:34;;;;;;;9.25;4.90;;;;;;;;;;5023177;28;20471;-82
2021/06/03 00:17:19;;;;;;;6.25;3.53;;;;;;;;;;5016943;28;20112;-83
2021/06/03 00:20:09;;;;;;;6.90;3.85;;;;;;;;;;5018646;28;20097;-83
2021/06/03 00:22:55;;;;;;;7.88;4.35;;;;;;;;;;5010598;28;20592;-80
2021/06/03 00:25:40;;;;;;;6.07;3.97;;;;;;;;;;5010728;28;20033;-80
2021/06/03 00:28:26;;;;;;;7.80;4.40;;;;;;;;;;4994030;28;20046;-80
2021/06/03 00:31:11;;;;;;;8.77;3.90;;;;;;;;;;5010572;28;20032;-79
2021/06/03 00:33:56;;;;;;;7.53;3.95;;;;;;;;;;5011362;28;20557;-81
2021/06/03 00:36:41;;;;;;;6.20;3.92;;;;;;;;;;5018302;28;20379;-80
2021/06/03 00:39:27;;;;;;;7.80;4.13;;;;;;;;;;5014441;28;20074;-80
2021/06/03 00:42:12;;;;;;;6.80;4.25;;;;;;;;;;5018402;28;20356;-80
2021/06/03 00:44:57;;;;;;;8.60;4.47;;;;;;;;;;5015245;28;20024;-80
2021/06/03 00:47:43;;;;;;;7.10;4.85;;;;;;;;;;5012898;28;20140;-81
2021/06/03 00:50:33;;;;;;;10.10;4.15;;;;;;;;;;5007616;28;20048;-80
2021/06/03 00:53:19;;;;;;;6.55;3.72;;;;;;;;;;5011210;28;20035;-81
2021/06/03 00:56:05;;;;;;;6.93;3.80;;;;;;;;;;5018183;28;20067;-79
2021/06/03 00:58:50;;;;;;;8.30;3.83;;;;;;;;;;5010640;28;20048;-80
2021/06/03 01:01:35;;;;;;;6.95;3.90;;;;;;;;;;5010469;28;20057;-79
2021/06/03 01:04:21;;;;;;;8.88;4.13;;;;;;;;;;5005093;28;20127;-79
2021/06/03 01:07:07;;;;;;;6.72;4.07;;;;;;;;;;5009666;28;20029;-81
2021/06/03 01:09:52;;;;;;;7.18;3.83;;;;;;;;;;5009447;28;20025;-80
2021/06/03 01:13:09;;;;;;;9.02;4.60;;;;;;;;;;5016838;28;20052;-82
2021/06/03 01:15:55;;;;;;;6.90;4.15;;;;;;;;;;4984845;28;20271;-80
2021/06/03 01:18:40;;;;;;;6.47;4.28;;;;;;;;;;5012890;28;20060;-79
2021/06/03 01:21:34;;;;;;;7.50;4.28;;;;;;;;;;5011849;28;20029;-81
2021/06/03 01:24:32;;;;;;;7.25;4.10;;;;;;;;;;5008138;28;20029;-81
2021/06/03 01:27:18;;;;;;;7.38;4.22;;;;;;;;;;5015868;28;20049;-80
2021/06/03 01:30:18;;;;;;;9.63;3.60;;;;;;;;;;5008469;28;20178;-80
2021/06/03 01:33:06;;;;;;;8.32;4.00;;;;;;;;;;5011824;28;20399;-81
2021/06/03 01:35:54;;;;;;;8.10;4.00;;;;;;;;;;5010702;28;20025;-80
2021/06/03 01:38:40;;;;;;;7.03;4.25;;;;;;;;;;5013605;28;20117;-80
2021/06/03 01:41:25;;;;;;;6.03;4.05;;;;;;;;;;5012797;28;20128;-81
2021/06/03 01:44:10;;;;;;;6.38;4.10;;;;;;;;;;5012716;28;20033;-81
2021/06/03 01:46:56;;;;;;;7.97;4.05;;;;;;;;;;5011961;28;20025;-80
2021/06/03 01:49:43;;;;;;;8.75;4.47;;;;;;;;;;5020600;28;20542;-80
2021/06/03 01:52:28;;;;;;;5.85;4.68;;;;;;;;;;5013719;28;20028;-80
2021/06/03 01:55:15;;;;;;;5.75;4.32;;;;;;;;;;5015949;28;20439;-80
2021/06/03 01:58:01;;;;;;;6.30;4.47;;;;;;;;;;5011445;28;20386;-80
2021/06/03 02:00:47;;;;;;;7.40;4.35;;;;;;;;;;5014886;28;20433;-80
2021/06/03 02:03:32;;;;;;;8.07;4.35;;;;;;;;;;5013663;28;20041;-80
2021/06/03 02:06:17;;;;;;;6.75;4.47;;;;;;;;;;5011535;28;20026;-80
2021/06/03 02:09:04;;;;;;;7.50;4.07;;;;;;;;;;5002318;28;20033;-80
2021/06/03 02:11:49;;;;;;;7.22;4.22;;;;;;;;;;5010712;28;20022;-80
2021/06/03 02:14:36;;;;;;;7.30;3.35;;;;;;;;;;5011193;28;20083;-80
2021/06/03 02:17:35;;;;;;;6.68;4.60;;;;;;;;;;5009301;28;20025;-80
2021/06/03 02:20:23;;;;;;;7.18;4.50;;;;;;;;;;5000812;28;20026;-80
2021/06/03 02:23:10;;;;;;;8.18;4.20;;;;;;;;;;5008038;28;20160;-80
2021/06/03 02:25:59;;;;;;;7.68;4.43;;;;;;;;;;5013760;28;21688;-80
2021/06/03 02:28:45;;;;;;;6.38;4.00;;;;;;;;;;5009995;28;20049;-80
2021/06/03 02:31:31;;;;;;;8.30;4.40;;;;;;;;;;5017704;28;20425;-80
2021/06/03 02:34:17;;;;;;;6.30;4.45;;;;;;;;;;5000959;28;20033;-80
2021/06/03 02:37:07;;;;;;;6.65;4.55;;;;;;;;;;5018972;28;20494;-80
2021/06/03 02:40:00;;;;;;;6.47;4.55;;;;;;;;;;5012180;28;20116;-80
2021/06/03 02:42:45;;;;;;;8.52;4.35;;;;;;;;;;5016456;28;20118;-81
2021/06/03 02:45:32;;;;;;;5.78;4.13;;;;;;;;;;5015449;28;20048;-81
2021/06/03 02:48:17;;;;;;;8.55;4.10;;;;;;;;;;5015490;28;20026;-81
2021/06/03 02:51:03;;;;;;;7.93;3.88;;;;;;;;;;5014716;28;20044;-80
2021/06/03 02:53:48;;;;;;;7.22;4.10;;;;;;;;;;4998890;28;20018;-80
2021/06/03 02:56:33;;;;;;;6.38;4.25;;;;;;;;;;5014225;28;20029;-81
2021/06/03 02:59:19;;;;;;;5.32;4.00;;;;;;;;;;5014572;28;20502;-82
2021/06/03 03:02:04;;;;;;;7.78;4.78;;;;;;;;;;5010142;28;20424;-81
2021/06/03 03:04:49;;;;;;;8.05;4.60;;;;;;;;;;5017498;28;20021;-81
2021/06/03 03:07:35;;;;;;;5.82;4.22;;;;;;;;;;5014363;28;20395;-81
2021/06/03 03:10:24;;;;;;;5.38;4.15;;;;;;;;;;5021344;28;20166;-81
2021/06/03 03:13:10;;;;;;;7.10;4.07;;;;;;;;;;5021200;28;20283;-80
2021/06/03 03:15:55;;;;;;;5.97;4.25;;;;;;;;;;5010551;28;20033;-80
2021/06/03 03:18:40;;;;;;;6.63;3.85;;;;;;;;;;5008117;28;20021;-80
2021/06/03 03:21:26;;;;;;;6.60;4.43;;;;;;;;;;5011177;28;20072;-80
2021/06/03 03:24:11;;;;;;;5.10;4.30;;;;;;;;;;5014391;28;20022;-81
2021/06/03 03:26:56;;;;;;;7.55;5.00;;;;;;;;;;5016070;28;20029;-83
2021/06/03 03:29:42;;;;;;;6.03;4.15;;;;;;;;;;5015080;28;20025;-81
2021/06/03 03:32:28;;;;;;;8.02;4.55;;;;;;;;;;5018322;28;20361;-81
2021/06/03 03:35:13;;;;;;;5.63;4.10;;;;;;;;;;5014744;28;20025;-81
2021/06/03 03:37:59;;;;;;;6.18;4.30;;;;;;;;;;5014926;28;20156;-81
2021/06/03 03:40:44;;;;;;;6.82;4.50;;;;;;;;;;5012962;28;20090;-81
2021/06/03 03:43:29;;;;;;;9.90;4.35;;;;;;;;;;5015473;28;20029;-81
2021/06/03 03:46:15;;;;;;;6.38;4.70;;;;;;;;;;5013570;28;20029;-81
2021/06/03 03:49:00;;;;;;;9.02;4.50;;;;;;;;;;5015537;28;20029;-81
2021/06/03 03:51:45;;;;;;;5.45;4.00;;;;;;;;;;5008899;28;20050;-80
2021/06/03 03:54:31;;;;;;;9.07;4.40;;;;;;;;;;5014039;28;20123;-80
2021/06/03 03:57:18;;;;;;;7.28;4.50;;;;;;;;;;5012031;28;20033;-80
2021/06/03 04:00:11;;;;;;;6.57;4.13;;;;;;;;;;5019474;28;20028;-79
2021/06/03 04:02:57;;;;;;;8.40;4.35;;;;;;;;;;4997985;28;20025;-80
2021/06/03 04:05:42;;;;;;;7.47;4.50;;;;;;;;;;5017770;28;20033;-80
2021/06/03 04:08:28;;;;;;;7.10;4.00;;;;;;;;;;5016523;28;20029;-80
2021/06/03 04:11:13;;;;;;;6.47;4.32;;;;;;;;;;5013683;28;20110;-81
2021/06/03 04:13:58;;;;;;;4.93;4.05;;;;;;;;;;4998430;28;20039;-82
2021/06/03 04:16:43;;;;;;;7.80;4.38;;;;;;;;;;5015606;28;20105;-80
2021/06/03 04:19:29;;;;;;;7.47;4.75;;;;;;;;;;5013073;28;20056;-82
2021/06/03 04:22:14;;;;;;;6.38;3.88;;;;;;;;;;5007413;28;20104;-81
2021/06/03 04:24:59;;;;;;;6.30;3.97;;;;;;;;;;5014102;28;20047;-80
2021/06/03 04:27:44;;;;;;;5.22;4.22;;;;;;;;;;5014775;28;20128;-81
2021/06/03 04:30:29;;;;;;;7.82;3.90;;;;;;;;;;5007726;28;20108;-80
2021/06/03 04:33:20;;;;;;;7.07;4.53;;;;;;;;;;5015344;28;20078;-80
2021/06/03 04:36:05;;;;;;;5.32;4.10;;;;;;;;;;5013186;28;20112;-80
2021/06/03 04:38:50;;;;;;;6.97;4.32;;;;;;;;;;5010478;28;20060;-80
2021/06/03 04:41:35;;;;;;;7.65;4.32;;;;;;;;;;5011095;28;20128;-80
2021/06/03 04:44:21;;;;;;;6.28;4.20;;;;;;;;;;5014794;28;20112;-81
2021/06/03 04:47:06;;;;;;;8.73;4.90;;;;;;;;;;5000146;28;20029;-81
2021/06/03 04:49:51;;;;;;;9.27;4.40;;;;;;;;;;5014892;28;20063;-80
2021/06/03 04:52:36;;;;;;;9.00;4.38;;;;;;;;;;5017570;28;20063;-80
2021/06/03 04:55:23;;;;;;;4.78;3.83;;;;;;;;;;5019635;28;20033;-80
2021/06/03 04:58:08;;;;;;;7.53;4.10;;;;;;;;;;5009287;28;20017;-80
2021/06/03 05:00:53;;;;;;;7.18;4.50;;;;;;;;;;5012268;28;20112;-81
2021/06/03 05:03:38;;;;;;;7.28;4.25;;;;;;;;;;4991695;28;20113;-83
2021/06/03 05:06:24;;;;;;;5.88;4.20;;;;;;;;;;5012558;28;20021;-81
2021/06/03 05:09:09;;;;;;;6.20;3.92;;;;;;;;;;5006410;28;20561;-81
2021/06/03 05:11:54;;;;;;;6.70;4.05;;;;;;;;;;5007632;28;20028;-80
2021/06/03 05:14:39;;;;;;;7.15;4.20;;;;;;;;;;5006490;28;20384;-80
2021/06/03 05:17:25;;;;;;;7.10;4.85;;;;;;;;;;4995608;28;20101;-81
2021/06/03 05:20:11;;;;;;;8.05;3.92;;;;;;;;;;5011980;28;20028;-81
2021/06/03 05:22:59;;;;;;;8.15;4.30;;;;;;;;;;5020830;28;20025;-82
2021/06/03 05:25:44;;;;;;;8.35;4.45;;;;;;;;;;5014431;28;20056;-80
2021/06/03 05:28:29;;;;;;;7.47;3.95;;;;;;;;;;5015142;28;20045;-79
2021/06/03 05:31:14;;;;;;;6.88;4.03;;;;;;;;;;5007764;28;20036;-82
2021/06/03 05:34:00;;;;;;;6.05;4.15;;;;;;;;;;4998786;28;20166;-80
2021/06/03 05:36:45;;;;;;;7.05;4.15;;;;;;;;;;5009564;28;20025;-80
2021/06/03 05:39:30;;;;;;;6.68;4.57;;;;;;;;;;5011244;28;20348;-80
2021/06/03 05:42:17;;;;;;;4.80;3.95;;;;;;;;;;4998552;28;20049;-79
2021/06/03 05:45:03;;;;;;;8.40;4.30;;;;;;;;;;5009825;28;20394;-77
2021/06/03 05:47:48;;;;;;;5.57;3.97;;;;;;;;;;5012555;28;20025;-79
2021/06/03 05:50:35;;;;;;;6.63;4.13;;;;;;;;;;5009538;28;20057;-79
2021/06/03 05:53:20;;;;;;;6.53;3.58;;;;;;;;;;5009891;28;20040;-83
2021/06/03 05:56:05;;;;;;;4.68;3.70;;;;;;;;;;5009587;28;20450;-79
2021/06/03 05:58:51;;;;;;;7.30;4.28;;;;;;;;;;5014832;28;20376;-81
2021/06/03 06:01:36;;;;;;;5.18;4.32;;;;;;;;;;5018886;28;20625;-81
2021/06/03 06:07:07;;;;;;;4.97;3.75;;;;;;;;;;5014115;28;20472;-88
2021/06/03 06:09:52;;;;;;;7.40;4.20;;;;;;;;;;5023541;28;20021;-81
2021/06/03 06:12:37;;;;;;;6.20;4.00;;;;;;;;;;5022657;28;20090;-92
2021/06/03 06:15:23;;;;;;;7.13;4.88;;;;;;;;;;5025435;28;20024;-91
2021/06/03 06:18:09;;;;;;;5.95;4.15;;;;;;;;;;5018587;28;20029;-90
2021/06/03 06:20:55;;;;;;;7.88;3.80;;;;;;;;;;5020917;28;20071;-87
2021/06/03 06:23:40;;;;;;;8.70;4.20;;;;;;;;;;5004840;28;20028;-80
2021/06/03 06:26:25;;;;;;;5.60;3.60;;;;;;;;;;5022802;28;20060;-86
2021/06/03 06:29:11;;;;;;;10.30;4.18;;;;;;;;;;5022294;28;20055;-81
2021/06/03 06:31:56;;;;;;;5.38;4.10;;;;;;;;;;5013058;28;20021;-80
2021/06/03 06:34:41;;;;;;;5.55;4.07;;;;;;;;;;5020381;28;20066;-80
2021/06/03 06:37:27;;;;;;;6.55;4.07;;;;;;;;;;5015492;28;20022;-77
2021/06/03 06:40:12;;;;;;;6.75;4.00;;;;;;;;;;5022758;28;20025;-76
2021/06/03 06:42:57;;;;;;;7.85;4.25;;;;;;;;;;5010293;28;20048;-84
2021/06/03 06:45:43;;;;;;;7.35;3.90;;;;;;;;;;5016350;28;20017;-84
2021/06/03 06:48:28;;;;;;;6.65;3.97;;;;;;;;;;5017082;28;20026;-85
2021/06/03 06:51:14;;;;;;;9.32;4.32;;;;;;;;;;5011337;28;20056;-84
2021/06/03 06:53:59;;;;;;;5.25;3.55;;;;;;;;;;5013926;28;20029;-84
2021/06/03 06:56:44;;;;;;;5.18;3.70;;;;;;;;;;5022163;28;20017;-82
2021/06/03 06:59:29;;;;;;;6.15;3.55;;;;;;;;;;5014263;28;20434;-83
2021/06/03 07:02:15;;;;;;;6.32;3.72;;;;;;;;;;5021340;28;20021;-83
2021/06/03 07:05:00;;;;;;;4.45;3.65;;;;;;;;;;5012784;28;20017;-84
2021/06/03 07:07:45;;;;;;;6.47;3.67;;;;;;;;;;5015527;28;20064;-83
2021/06/03 07:10:30;;;;;;;8.52;4.95;;;;;;;;;;5014831;28;20472;-83
2021/06/03 07:13:16;;;;;;;6.65;3.60;;;;;;;;;;5001278;28;20059;-82
2021/06/03 07:16:01;;;;;;;5.72;3.83;;;;;;;;;;5001982;28;20028;-83
2021/06/03 07:18:46;;;;;;;3.80;3.38;;;;;;;;;;5011275;28;20503;-82
2021/06/03 07:21:32;;;;;;;4.45;3.10;;;;;;;;;;5013606;28;20452;-83
2021/06/03 07:24:17;;;;;;;6.30;3.28;;;;;;;;;;5013291;28;20040;-83
2021/06/03 07:27:03;;;;;;;5.47;3.42;;;;;;;;;;5016409;28;20206;-83
2021/06/03 07:29:48;;;;;;;4.38;3.45;;;;;;;;;;5014805;28;20060;-83
2021/06/03 07:32:34;;;;;;;7.25;4.97;;;;;;;;;;5014861;28;20392;-82
2021/06/03 07:35:20;;;;;;;3.80;2.90;;;;;;;;;;5009867;28;20037;-83
2021/06/03 07:38:05;;;;;;;6.00;2.80;;;;;;;;;;5016910;28;20426;-81
2021/06/03 07:40:51;;;;;;;5.40;3.03;;;;;;;;;;5016504;28;20039;-82
2021/06/03 07:43:36;;;;;;;6.28;3.20;;;;;;;;;;5013927;28;20029;-83
2021/06/03 07:46:25;;;;;;;6.18;3.63;;;;;;;;;;5012996;28;20029;-84
2021/06/03 07:49:13;;;;;;;10.73;5.07;;;;;;;;;;5014985;28;21000;-82
2021/06/03 07:52:02;;;;;;;4.05;2.70;;;;;;;;;;5012704;28;20018;-83
2021/06/03 07:54:47;;;;;;;9.50;3.60;;;;;;;;;;5012948;28;20056;-80
2021/06/03 07:57:33;;;;;;;6.30;2.38;;;;;;;;;;5015432;28;20021;-80
2021/06/03 08:00:20;;;;;;;5.45;2.42;;;;;;;;;;5013466;28;20543;-79
2021/06/03 08:03:05;;;;;;;4.35;2.22;;;;;;;;;;5018842;28;20475;-77
2021/06/03 08:05:51;;;;;;;5.90;4.05;;;;;;;;;;5010215;28;20037;-77
2021/06/03 08:08:37;;;;;;;6.60;4.43;;;;;;;;;;5017413;28;20033;-79
2021/06/03 08:11:22;;;;;;;9.48;3.13;;;;;;;;;;5012190;28;20072;-79
2021/06/03 08:14:08;;;;;;;3.33;2.13;;;;;;;;;;5015719;28;20144;-77
2021/06/03 08:16:53;;;;;;;6.53;2.40;;;;;;;;;;5018017;28;20028;-78
2021/06/03 08:19:38;;;;;;;7.07;2.70;;;;;;;;;;5029649;28;20032;-77
2021/06/03 08:22:23;;;;;;;4.68;2.28;;;;;;;;;;5012838;28;20041;-77
2021/06/03 08:25:10;;;;;;;4.38;2.60;;;;;;;;;;5015650;28;20041;-76
2021/06/03 08:27:55;;;;;;;7.45;2.88;;;;;;;;;;5012418;28;20174;-83
2021/06/03 08:30:41;;;;;;;13.10;2.60;;;;;;;;;;5010932;28;20108;-77
2021/06/03 08:33:27;;;;;;;4.07;2.58;;;;;;;;;;5011586;28;20037;-79
2021/06/03 08:36:13;;;;;;;7.25;2.35;;;;;;;;;;5013091;28;20079;-77
2021/06/03 08:38:58;;;;;;;8.98;5.18;;;;;;;;;;5020671;28;20024;-77
2021/06/03 08:41:45;;;;;;;6.28;2.70;;;;;;;;;;5014552;28;20025;-80
2021/06/03 08:44:30;;;;;;;5.32;2.70;;;;;;;;;;5013293;28;20537;-77
2021/06/03 08:47:15;;;;;;;4.32;2.45;;;;;;;;;;5012740;28;20120;-78
2021/06/03 08:50:02;;;;;;;4.40;2.85;;;;;;;;;;5014346;28;20021;-78
2021/06/03 08:52:50;;;;;;;4.93;2.50;;;;;;;;;;4995271;28;20472;-77
2021/06/03 08:58:40;;;;;;;3.40;2.10;;;;;;;;;;5010432;28;20017;-77
2021/06/03 09:01:26;;;;;;;5.05;2.45;;;;;;;;;;5011457;28;20017;-75
2021/06/03 09:04:11;;;;;;;6.25;2.22;;;;;;;;;;5012127;28;20029;-76
2021/06/03 09:06:57;;;;;;;5.03;1.92;;;;;;;;;;5014158;28;20032;-76
2021/06/03 09:09:42;;;;;;;4.78;3.13;;;;;;;;;;5014733;28;20022;-76
2021/06/03 09:12:27;;;;;;;7.18;5.10;;;;;;;;;;5014563;28;20380;-75
2021/06/03 09:15:13;;;;;;;6.15;4.00;;;;;;;;;;5017750;28;20587;-78
2021/06/03 09:17:58;;;;;;;7.28;2.78;;;;;;;;;;5017955;28;20025;-76
2021/06/03 09:20:44;;;;;;;3.65;2.15;;;;;;;;;;5010863;28;20026;-78
2021/06/03 09:23:31;;;;;;;4.75;2.90;;;;;;;;;;5020854;28;20037;-76
2021/06/03 09:26:17;;;;;;;3.30;1.83;;;;;;;;;;5011312;28;20120;-75
2021/06/03 09:29:04;;;;;;;3.47;2.10;;;;;;;;;;5007873;28;20045;-75
2021/06/03 09:31:50;;;;;;;8.43;3.22;;;;;;;;;;5019740;28;20031;-78
2021/06/03 09:34:36;;;;;;;11.40;3.72;;;;;;;;;;5015440;28;20029;-78
2021/06/03 09:37:32;;;;;;;12.77;5.25;;;;;;;;;;5013935;28;20072;-76
2021/06/03 09:40:21;;;;;;;17.25;6.53;;;;;;;;;;5009769;28;20065;-75
2021/06/03 09:43:10;;;;;;;4.90;2.60;;;;;;;;;;5016230;28;20033;-74
2021/06/03 09:45:57;;;;;;;22.35;8.32;;;;;;;;;;5008819;28;20482;-75
2021/06/03 09:48:46;;;;;;;5.35;3.00;;;;;;;;;;5016341;28;20100;-74
2021/06/03 09:51:36;;;;;;;15.20;5.82;;;;;;;;;;4997464;28;20556;-75
2021/06/03 09:54:22;;;;;;;8.40;4.15;;;;;;;;;;5019267;28;20116;-75
2021/06/03 09:57:11;;;;;;;11.25;4.80;;;;;;;;;;5016258;28;20026;-75
2021/06/03 09:59:57;;;;;;;8.52;3.97;;;;;;;;;;5029995;28;20440;-76
2021/06/03 10:02:44;;;;;;;9.13;3.50;;;;;;;;;;5017199;28;20462;-75
2021/06/03 10:05:29;;;;;;;8.68;3.53;;;;;;;;;;5017998;28;20105;-76
2021/06/03 10:08:14;;;;;;;6.13;2.67;;;;;;;;;;5020556;28;20021;-76
2021/06/03 10:10:59;;;;;;;8.88;3.28;;;;;;;;;;5016584;28;20079;-76
2021/06/03 10:14:03;;;;;;;9.75;2.80;;;;;;;;;;5009422;28;20021;-79
2021/06/03 10:16:48;;;;;;;8.77;4.25;;;;;;;;;;5012646;28;20040;-78
2021/06/03 10:19:34;;;;;;;10.07;3.33;;;;;;;;;;5001980;28;20064;-78
2021/06/03 10:22:23;;;;;;;4.40;2.33;;;;;;;;;;5011965;28;20144;-82
2021/06/03 10:25:10;;;;;;;3.75;2.20;;;;;;;;;;5014724;28;20037;-79
2021/06/03 10:28:00;;;;;;;4.10;2.50;;;;;;;;;;5002808;28;20477;-77
2021/06/03 10:30:47;;;;;;;6.05;2.78;;;;;;;;;;5008781;28;20033;-82
2021/06/03 10:33:33;;;;;;;5.07;2.28;;;;;;;;;;5011333;28;20589;-78
2021/06/03 10:36:18;;;;;;;5.20;2.63;;;;;;;;;;5002445;28;20029;-78
2021/06/03 10:39:04;;;;;;;4.18;2.17;;;;;;;;;;5011264;28;20108;-76
2021/06/03 10:41:49;;;;;;;3.92;1.88;;;;;;;;;;5005224;28;20403;-76
2021/06/03 10:44:34;;;;;;;4.63;2.10;;;;;;;;;;5006808;28;20583;-77
2021/06/03 10:47:20;;;;;;;5.28;2.38;;;;;;;;;;5006000;28;20034;-79
2021/06/03 10:50:06;;;;;;;4.90;2.88;;;;;;;;;;5015829;28;20022;-77
2021/06/03 10:52:53;;;;;;;3.33;2.00;;;;;;;;;;5010007;28;20281;-77
2021/06/03 10:55:40;;;;;;;3.58;2.08;;;;;;;;;;5013137;28;20021;-77
2021/06/03 10:58:33;;;;;;;5.50;2.88;;;;;;;;;;5010008;28;20097;-77
2021/06/03 11:01:20;;;;;;;6.82;3.42;;;;;;;;;;5010284;28;20316;-78
2021/06/03 11:04:10;;;;;;;7.72;4.00;;;;;;;;;;4996534;28;20520;-78
2021/06/03 11:06:55;;;;;;;2.85;2.28;;;;;;;;;;5014602;28;20037;-76
2021/06/03 11:09:43;;;;;;;2.40;1.90;;;;;;;;;;5010223;28;20036;-77
2021/06/03 11:12:28;;;;;;;6.05;2.35;;;;;;;;;;5011384;28;20026;-76
2021/06/03 11:15:14;;;;;;;4.95;2.92;;;;;;;;;;5013761;28;20121;-75
2021/06/03 11:18:02;;;;;;;3.72;2.28;;;;;;;;;;5015152;28;20116;-76
2021/06/03 11:20:49;;;;;;;3.45;2.17;;;;;;;;;;5006667;28;20018;-76
2021/06/03 11:23:34;;;;;;;3.33;2.22;;;;;;;;;;4989250;28;20026;-77
2021/06/03 11:26:38;;;;;;;6.35;2.38;;;;;;;;;;5008139;28;20038;-78
2021/06/03 11:29:27;;;;;;;4.30;1.90;;;;;;;;;;4988683;28;20411;-78
2021/06/03 11:32:16;;;;;;;4.38;2.30;;;;;;;;;;5003119;28;20117;-77
2021/06/03 11:35:05;;;;;;;3.40;1.88;;;;;;;;;;4988097;28;20042;-76
2021/06/03 11:37:50;;;;;;;6.13;2.22;;;;;;;;;;4993478;28;20030;-77
2021/06/03 11:40:42;;;;;;;2.42;1.85;;;;;;;;;;4995450;28;20080;-77
2021/06/03 11:43:27;;;;;;;6.22;2.30;;;;;;;;;;4993740;28;20026;-78
2021/06/03 11:46:12;;;;;;;3.10;2.00;;;;;;;;;;4996446;28;20026;-77
2021/06/03 11:48:58;;;;;;;5.85;2.35;;;;;;;;;;4994627;28;20030;-77
2021/06/03 11:52:01;;;;;;;3.30;2.20;;;;;;;;;;4997399;28;20129;-75
2021/06/03 11:55:01;;;;;;;7.22;2.33;;;;;;;;;;4995039;28;20100;-78
2021/06/03 11:58:06;;;;;;;5.80;1.92;;;;;;;;;;5000382;28;20073;-76
2021/06/03 12:00:52;;;;;;;2.33;2.00;;;;;;;;;;5003253;28;20480;-74
2021/06/03 12:03:39;;;;;;;5.38;2.40;;;;;;;;;;5002375;28;20487;-74
2021/06/03 12:06:24;;;;;;;4.70;2.72;;;;;;;;;;4996576;28;20135;-73
2021/06/03 12:09:16;;;;;;;2.45;2.05;;;;;;;;;;4993253;28;20026;-77
2021/06/03 12:12:02;;;;;;;5.40;2.13;;;;;;;;;;5000624;28;20426;-77
2021/06/03 12:14:47;;;;;;;3.78;2.53;;;;;;;;;;4997646;28;20033;-76
2021/06/03 12:17:33;;;;;;;2.75;2.03;;;;;;;;;;4987973;28;20038;-76
2021/06/03 12:20:18;;;;;;;4.05;2.20;;;;;;;;;;4993148;28;20034;-79
2021/06/03 12:23:04;;;;;;;4.00;2.00;;;;;;;;;;4996695;28;20026;-76
2021/06/03 12:25:49;;;;;;;3.50;2.10;;;;;;;;;;4991115;28;20079;-77
2021/06/03 12:28:35;;;;;;;5.13;2.20;;;;;;;;;;5001693;28;20060;-79
2021/06/03 12:31:25;;;;;;;2.50;2.13;;;;;;;;;;5012587;28;20431;-78
2021/06/03 12:34:23;;;;;;;2.53;2.03;;;;;;;;;;5007955;28;20030;-78
2021/06/03 12:37:19;;;;;;;3.42;2.20;;;;;;;;;;5002905;28;20061;-79
2021/06/03 12:40:20;;;;;;;4.20;2.28;;;;;;;;;;5007876;28;20036;-82
2021/06/03 12:43:07;;;;;;;6.35;3.40;;;;;;;;;;5003376;28;20108;-81
2021/06/03 12:45:52;;;;;;;7.05;2.97;;;;;;;;;;5013309;28;20026;-80
2021/06/03 12:48:38;;;;;;;5.72;3.00;;;;;;;;;;5015244;28;20103;-81
2021/06/03 12:51:23;;;;;;;6.65;2.72;;;;;;;;;;5005074;28;20064;-80
2021/06/03 12:54:09;;;;;;;8.02;3.00;;;;;;;;;;5005209;28;20017;-81
2021/06/03 12:56:58;;;;;;;4.28;2.50;;;;;;;;;;5006390;28;20037;-81
2021/06/03 12:59:45;;;;;;;4.50;2.60;;;;;;;;;;4993592;28;20064;-82
2021/06/03 13:02:32;;;;;;;3.83;2.30;;;;;;;;;;5003978;28;20366;-81
2021/06/03 13:05:21;;;;;;;6.00;2.25;;;;;;;;;;5011401;28;20032;-80
2021/06/03 13:08:06;;;;;;;4.05;2.42;;;;;;;;;;5009333;28;20389;-79
2021/06/03 13:10:53;;;;;;;5.43;2.90;;;;;;;;;;5015397;28;20407;-80
2021/06/03 13:13:38;;;;;;;5.32;3.08;;;;;;;;;;5005629;28;20404;-79
2021/06/03 13:16:25;;;;;;;4.57;2.25;;;;;;;;;;5006964;28;20424;-80
2021/06/03 13:19:11;;;;;;;3.88;2.42;;;;;;;;;;5006384;28;20642;-80
2021/06/03 13:21:58;;;;;;;3.72;2.03;;;;;;;;;;5009331;28;20075;-80
2021/06/03 13:24:45;;;;;;;4.18;1.98;;;;;;;;;;5002588;28;20029;-80
2021/06/03 13:27:31;;;;;;;2.80;1.63;;;;;;;;;;5014249;28;20037;-81
2021/06/03 13:30:23;;;;;;;4.47;2.40;;;;;;;;;;5015788;28;20030;-79
2021/06/03 13:33:13;;;;;;;3.70;2.10;;;;;;;;;;5018892;28;20041;-81
2021/06/03 13:36:00;;;;;;;5.80;3.25;;;;;;;;;;5004386;28;20017;-86
2021/06/03 13:38:46;;;;;;;4.82;3.13;;;;;;;;;;5009215;28;20116;-80
2021/06/03 13:41:31;;;;;;;4.38;2.58;;;;;;;;;;5015151;28;20021;-79
2021/06/03 13:44:17;;;;;;;4.90;2.53;;;;;;;;;;5008583;28;20665;-80
2021/06/03 13:47:04;;;;;;;7.28;3.03;;;;;;;;;;5018381;28;20078;-81
2021/06/03 13:49:50;;;;;;;4.95;2.45;;;;;;;;;;5016939;28;20380;-80
2021/06/03 13:52:46;;;;;;;6.75;3.60;;;;;;;;;;5014733;28;20029;-79
2021/06/03 13:55:51;;;;;;;7.45;2.88;;;;;;;;;;5013873;28;20119;-81
2021/06/03 13:58:52;;;;;;;10.55;2.70;;;;;;;;;;5011873;28;20450;-82
2021/06/03 14:01:42;;;;;;;5.55;2.38;;;;;;;;;;5012301;28;20021;-82
2021/06/03 14:04:28;;;;;;;8.20;2.33;;;;;;;;;;4997183;28;20092;-88
2021/06/03 14:07:13;;;;;;;4.13;2.63;;;;;;;;;;5018202;28;20021;-85
2021/06/03 14:10:09;;;;;;;7.38;2.65;;;;;;;;;;5011789;28;20490;-91
2021/06/03 14:12:58;;;;;;;5.28;2.40;;;;;;;;;;5018091;28;20025;-89
2021/06/03 14:21:20;;;;;;;3.60;1.77;;;;;;;;;;5042884;22;20140;-86
2021/06/03 14:24:24;;;;;;;4.18;1.83;;;;;;;;;;4998432;28;20058;-87
2021/06/03 14:27:32;;;;;;;2.35;1.95;;;;;;;;;;4984121;28;20117;-86
2021/06/03 14:30:21;;;;;;;2.47;1.60;;;;;;;;;;4961016;28;20026;-86
2021/06/03 14:33:06;;;;;;;;;;;;;;;;;;5021369;28;20014;-86
2021/06/03 14:35:52;;;;;;;1.92;1.63;;;;;;;;;;5006470;28;19932;-86
2021/06/03 14:38:46;;;;;;;5.90;1.95;;;;;;;;;;5030964;28;20057;-86
2021/06/03 14:41:41;;;;;;;2.08;1.30;;;;;;;;;;5022725;28;20030;-86
2021/06/03 14:44:27;;;;;;;4.47;2.25;;;;;;;;;;5025118;28;20033;-87
2021/06/03 14:47:12;;;;;;;2.60;1.58;;;;;;;;;;5007998;28;20020;-87
2021/06/03 14:49:57;;;;;;;3.22;1.60;;;;;;;;;;5016075;28;20025;-87
2021/06/03 14:52:49;;;;;;;2.53;1.70;;;;;;;;;;5020645;28;20053;-85
2021/06/03 14:55:35;;;;;;;1.77;1.40;;;;;;;;;;5003905;28;20372;-86
2021/06/03 14:58:21;;;;;;;2.22;1.63;;;;;;;;;;5023819;28;20036;-86
2021/06/03 15:01:08;;;;;;;3.05;1.67;;;;;;;;;;5022462;28;20025;-86
2021/06/03 15:03:53;;;;;;;2.80;1.30;;;;;;;;;;5015610;28;20033;-86
2021/06/03 15:06:40;;;;;;;2.60;1.80;;;;;;;;;;5022775;28;20034;-85
2021/06/03 15:09:26;;;;;;;2.47;1.70;;;;;;;;;;5015275;28;20025;-86
2021/06/03 15:12:12;;;;;;;2.78;1.90;;;;;;;;;;5017523;28;20646;-84
2021/06/03 15:14:57;;;;;;;5.38;1.85;;;;;;;;;;5024793;28;20267;-84
2021/06/03 15:17:42;;;;;;;2.42;1.75;;;;;;;;;;5039648;28;20029;-85
2021/06/03 15:20:35;;;;;;;3.30;1.70;;;;;;;;;;5042878;28;20098;-85
2021/06/03 15:23:22;;;;;;;3.33;2.13;;;;;;;;;;5018284;28;20677;-83
2021/06/03 15:26:07;;;;;;;3.03;1.95;;;;;;;;;;5036140;28;20667;-84
2021/06/03 15:28:53;;;;;;;5.68;1.85;;;;;;;;;;5037297;28;20394;-84
2021/06/03 15:31:38;;;;;;;3.58;1.90;;;;;;;;;;5040215;28;20167;-85
2021/06/03 15:34:23;;;;;;;7.53;2.58;;;;;;;;;;5026550;28;20392;-83
2021/06/03 15:37:11;;;;;;;3.45;1.90;;;;;;;;;;5030044;28;20364;-84
2021/06/03 15:39:56;;;;;;;7.70;2.40;;;;;;;;;;5041729;28;20114;-84
2021/06/03 15:42:41;;;;;;;2.10;1.90;;;;;;;;;;5049914;28;20028;-84
2021/06/03 15:45:27;;;;;;;2.00;1.73;;;;;;;;;;5047318;28;20025;-85
2021/06/03 15:48:13;;;;;;;3.97;1.90;;;;;;;;;;5044145;28;20032;-85
2021/06/03 15:50:58;;;;;;;7.70;3.30;;;;;;;;;;5033843;28;20017;-85
2021/06/03 15:53:47;;;;;;;4.32;2.15;;;;;;;;;;5039291;28;20483;-86
2021/06/03 15:56:32;;;;;;;2.42;1.73;;;;;;;;;;5043743;28;20469;-86
2021/06/03 15:59:18;;;;;;;2.83;2.22;;;;;;;;;;5033174;28;20029;-85
2021/06/03 16:02:04;;;;;;;2.95;2.08;;;;;;;;;;5035592;28;20037;-86
2021/06/03 16:04:50;;;;;;;3.63;1.83;;;;;;;;;;5042989;28;20016;-86
2021/06/03 16:07:35;;;;;;;1.52;1.27;;;;;;;;;;5050058;28;20067;-86
2021/06/03 16:10:20;;;;;;;3.97;1.77;;;;;;;;;;5036233;28;20064;-87
2021/06/03 16:13:06;;;;;;;2.40;1.42;;;;;;;;;;5036128;28;20025;-86
2021/06/03 16:15:51;;;;;;;2.00;1.55;;;;;;;;;;5038223;28;20029;-86
2021/06/03 16:18:36;;;;;;;2.95;1.70;;;;;;;;;;5041060;28;20356;-85
2021/06/03 16:21:22;;;;;;;2.65;1.50;;;;;;;;;;5028974;28;20079;-85
2021/06/03 16:24:08;;;;;;;3.55;1.65;;;;;;;;;;5044553;28;20017;-85
2021/06/03 16:26:53;;;;;;;2.88;1.58;;;;;;;;;;5036878;28;20028;-85
2021/06/03 16:29:38;;;;;;;4.50;2.15;;;;;;;;;;5026827;28;20028;-84
2021/06/03 16:32:24;;;;;;;2.85;1.80;;;;;;;;;;5033918;28;20036;-87
2021/06/03 16:35:09;;;;;;;3.03;1.95;;;;;;;;;;5045509;28;20025;-86
2021/06/03 16:37:56;;;;;;;3.70;1.63;;;;;;;;;;5039317;28;20023;-84
2021/06/03 16:40:42;;;;;;;2.95;1.92;;;;;;;;;;5040907;28;20024;-85
2021/06/03 16:43:27;;;;;;;5.22;1.92;;;;;;;;;;5036401;28;21361;-84
2021/06/03 16:46:13;;;;;;;3.83;2.50;;;;;;;;;;5036696;28;20132;-84
2021/06/03 16:48:59;;;;;;;4.35;2.60;;;;;;;;;;5045930;28;20031;-84
2021/06/03 16:51:44;;;;;;;4.68;1.95;;;;;;;;;;5031196;28;20032;-84